Time;durP1;ratioP1;P1;durP2;ratioP2;P2;SDS_P1;SDS_P2;PMS_P1;PMS_P2;Temp;Humidity;BMP_temperature;BMP_pressure;BME280_temperature;BME280_humidity;BME280_pressure;Samples;Min_cycle;Max_cycle;Signal;HPM_P1;HPM_P2
2023/09/17 00:00:16;;;;;;;40.80;36.67;;;16.00;99.90;;;;;;4994124;28;20038;-66
2023/09/17 00:02:42;;;;;;;42.88;38.47;;;16.10;99.90;;;;;;4978061;28;20442;-70
2023/09/17 00:05:08;;;;;;;43.45;38.83;;;16.10;99.90;;;;;;4977944;28;20125;-72
2023/09/17 00:07:34;;;;;;;38.47;34.60;;;16.10;99.90;;;;;;4977818;28;20082;-71
2023/09/17 00:09:59;;;;;;;42.10;38.00;;;16.00;99.90;;;;;;4978002;28;20050;-71
2023/09/17 00:12:25;;;;;;;37.85;34.15;;;16.00;99.90;;;;;;4978083;28;20056;-72
2023/09/17 00:14:51;;;;;;;39.97;35.88;;;16.10;99.90;;;;;;4961897;28;20423;-71
2023/09/17 00:17:18;;;;;;;41.40;37.30;;;16.10;99.90;;;;;;4977570;28;20077;-71
2023/09/17 00:19:44;;;;;;;41.42;37.33;;;16.00;99.90;;;;;;4993965;28;20506;-71
2023/09/17 00:22:14;;;;;;;42.05;37.88;;;16.10;99.90;;;;;;4993819;28;20038;-71
2023/09/17 00:24:43;;;;;;;42.85;38.60;;;16.00;99.90;;;;;;4993831;28;20042;-72
2023/09/17 00:27:09;;;;;;;42.88;38.47;;;16.00;99.90;;;;;;4977964;28;20478;-72
2023/09/17 00:29:35;;;;;;;42.10;37.85;;;15.90;99.90;;;;;;4977625;28;20097;-73
2023/09/17 00:32:01;;;;;;;44.65;40.15;;;15.90;99.90;;;;;;4993456;28;20046;-72
2023/09/17 00:34:26;;;;;;;46.03;41.42;;;15.90;99.90;;;;;;4977462;28;20048;-72
2023/09/17 00:36:52;;;;;;;44.63;39.97;;;15.90;99.90;;;;;;4961221;28;20133;-72
2023/09/17 00:39:18;;;;;;;44.85;40.15;;;15.80;99.90;;;;;;4977651;28;20042;-71
2023/09/17 00:41:44;;;;;;;41.75;37.42;;;15.80;99.90;;;;;;4993702;28;20057;-72
2023/09/17 00:44:11;;;;;;;38.85;34.85;;;15.90;99.90;;;;;;4977096;28;20038;-71
2023/09/17 00:46:37;;;;;;;40.53;36.38;;;15.90;99.90;;;;;;4977261;28;20172;-71
2023/09/17 00:49:04;;;;;;;36.35;32.60;;;15.90;99.90;;;;;;4992561;28;20125;-72
2023/09/17 00:51:34;;;;;;;39.75;35.63;;;15.90;99.90;;;;;;4977229;28;20061;-71
2023/09/17 00:54:00;;;;;;;37.05;33.25;;;15.90;99.90;;;;;;4961223;28;20034;-71
2023/09/17 00:56:26;;;;;;;41.58;37.35;;;15.90;99.90;;;;;;4977133;28;20106;-74
2023/09/17 00:58:52;;;;;;;39.95;35.97;;;15.90;99.90;;;;;;4960790;28;20054;-71
2023/09/17 01:01:19;;;;;;;40.67;36.58;;;15.90;99.90;;;;;;4993478;28;20070;-72
2023/09/17 01:03:45;;;;;;;40.72;36.67;;;15.90;99.90;;;;;;4993389;28;20526;-72
2023/09/17 01:06:12;;;;;;;39.72;35.63;;;15.90;99.90;;;;;;4976882;28;20126;-72
2023/09/17 01:08:41;;;;;;;38.47;34.55;;;15.80;99.90;;;;;;4977248;28;20046;-72
2023/09/17 01:11:09;;;;;;;41.60;37.38;;;15.80;99.90;;;;;;4993304;28;20042;-73
2023/09/17 01:13:41;;;;;;;39.03;34.83;;;15.80;99.90;;;;;;4976911;28;20046;-66
2023/09/17 01:16:07;;;;;;;41.92;37.67;;;15.80;99.90;;;;;;4992692;28;20050;-66
2023/09/17 01:18:34;;;;;;;41.20;36.90;;;15.70;99.90;;;;;;4992501;28;20046;-66
2023/09/17 01:21:11;;;;;;;41.25;36.95;;;15.70;99.90;;;;;;4976751;28;20073;-66
2023/09/17 01:23:58;;;;;;;37.85;33.95;;;15.70;99.90;;;;;;4992956;28;20471;-65
2023/09/17 01:26:30;;;;;;;37.08;33.25;;;15.60;99.90;;;;;;4976352;28;20038;-66
2023/09/17 01:28:56;;;;;;;;;;;15.70;99.90;;;;;;4993283;28;20056;-65
2023/09/17 01:31:23;;;;;;;39.67;35.63;;;15.70;99.90;;;;;;4993217;28;19987;-66
2023/09/17 01:33:51;;;;;;;38.42;34.55;;;15.70;99.90;;;;;;4976500;28;20546;-66
2023/09/17 01:36:23;;;;;;;40.05;35.85;;;15.70;99.90;;;;;;4976375;28;20046;-66
2023/09/17 01:38:54;;;;;;;37.97;34.00;;;15.60;99.90;;;;;;4992359;28;20078;-67
2023/09/17 01:41:21;;;;;;;37.20;33.40;;;15.60;99.90;;;;;;4976243;28;20038;-66
2023/09/17 01:43:48;;;;;;;38.30;34.40;;;15.60;99.90;;;;;;4992625;28;20054;-65
2023/09/17 01:46:16;;;;;;;40.67;36.45;;;15.70;99.90;;;;;;4976491;28;20474;-65
2023/09/17 01:48:44;;;;;;;37.25;33.53;;;15.70;99.90;;;;;;4992528;28;20054;-66
2023/09/17 01:51:11;;;;;;;37.95;34.08;;;15.60;99.90;;;;;;4992218;28;20058;-66
2023/09/17 01:53:37;;;;;;;36.45;32.70;;;15.60;99.90;;;;;;4993842;28;20498;-66
2023/09/17 01:56:04;;;;;;;36.47;32.60;;;15.70;99.90;;;;;;4992351;28;20050;-67
2023/09/17 01:58:31;;;;;;;37.75;33.85;;;15.70;99.90;;;;;;4976198;28;20046;-66
2023/09/17 02:00:57;;;;;;;38.63;34.55;;;15.70;99.90;;;;;;4978829;28;20058;-66
2023/09/17 02:03:22;;;;;;;40.25;36.05;;;15.60;99.90;;;;;;4996349;28;20054;-66
2023/09/17 02:05:48;;;;;;;39.17;35.08;;;15.70;99.90;;;;;;4980532;28;20068;-66
2023/09/17 02:08:14;;;;;;;38.08;33.90;;;15.60;99.90;;;;;;4980026;28;20042;-66
2023/09/17 02:10:40;;;;;;;36.42;32.60;;;15.60;99.90;;;;;;4996035;28;20518;-66
2023/09/17 02:13:06;;;;;;;35.83;32.10;;;15.60;99.90;;;;;;4996360;28;20042;-66
2023/09/17 02:15:33;;;;;;;38.10;34.08;;;15.60;99.90;;;;;;4997502;28;20058;-66
2023/09/17 02:17:58;;;;;;;38.10;34.33;;;15.60;99.90;;;;;;4995968;28;20129;-65
2023/09/17 02:20:25;;;;;;;39.20;35.10;;;15.70;99.90;;;;;;4979720;28;20070;-65
2023/09/17 02:22:50;;;;;;;40.92;36.72;;;15.70;99.90;;;;;;4980105;28;20088;-71
2023/09/17 02:25:22;;;;;;;39.72;35.60;;;15.70;99.90;;;;;;4995963;28;20038;-71
2023/09/17 02:27:49;;;;;;;41.90;37.35;;;15.60;99.90;;;;;;4964050;28;20042;-72
2023/09/17 02:30:14;;;;;;;44.10;39.35;;;15.60;99.90;;;;;;4996182;28;20505;-72
2023/09/17 02:32:41;;;;;;;40.47;36.28;;;15.60;99.90;;;;;;4979564;28;20046;-72
2023/09/17 02:35:08;;;;;;;40.15;36.00;;;15.60;99.90;;;;;;4963735;28;20046;-71
2023/09/17 02:37:34;;;;;;;39.97;35.78;;;15.50;99.90;;;;;;4995798;28;20047;-72
2023/09/17 02:39:59;;;;;;;41.78;37.60;;;15.60;99.90;;;;;;4997350;28;20042;-72
2023/09/17 02:42:25;;;;;;;44.15;39.55;;;15.50;99.90;;;;;;4979693;28;20102;-72
2023/09/17 02:44:51;;;;;;;46.53;41.63;;;15.50;99.90;;;;;;4979266;28;20105;-72
2023/09/17 02:47:17;;;;;;;44.15;39.50;;;15.50;99.90;;;;;;4996646;28;20042;-72
2023/09/17 02:49:43;;;;;;;42.63;38.13;;;15.60;99.90;;;;;;4995225;28;20065;-72
2023/09/17 02:52:10;;;;;;;42.67;38.22;;;15.60;99.90;;;;;;4979333;28;20046;-72
2023/09/17 02:54:35;;;;;;;48.30;42.95;;;15.50;99.90;;;;;;4963571;28;20085;-72
2023/09/17 02:57:02;;;;;;;45.47;40.63;;;15.50;99.90;;;;;;4979674;28;20038;-71
2023/09/17 02:59:28;;;;;;;43.17;38.67;;;15.60;99.90;;;;;;4995577;28;20054;-71
2023/09/17 03:01:54;;;;;;;44.33;39.55;;;15.50;99.90;;;;;;4995700;28;20042;-72
2023/09/17 03:04:20;;;;;;;45.88;40.97;;;15.50;99.90;;;;;;4995211;28;20050;-72
2023/09/17 03:06:46;;;;;;;44.63;40.03;;;15.60;99.90;;;;;;4995109;28;20100;-72
2023/09/17 03:09:13;;;;;;;42.65;38.15;;;15.60;99.90;;;;;;4963475;28;20115;-72
2023/09/17 03:11:39;;;;;;;45.20;40.55;;;15.60;99.90;;;;;;4994942;28;20038;-72
2023/09/17 03:14:05;;;;;;;44.05;39.47;;;15.60;99.90;;;;;;4979173;28;20084;-72
2023/09/17 03:16:31;;;;;;;43.40;38.90;;;15.60;99.90;;;;;;4994939;28;20035;-71
2023/09/17 03:18:57;;;;;;;53.17;47.38;;;15.60;99.90;;;;;;4994938;28;20093;-72
2023/09/17 03:21:23;;;;;;;49.38;44.08;;;15.60;99.90;;;;;;4979251;28;20450;-70
2023/09/17 03:23:49;;;;;;;50.67;45.28;;;15.50;99.90;;;;;;4996468;28;20049;-71
2023/09/17 03:26:14;;;;;;;47.75;42.78;;;15.60;99.90;;;;;;4994817;28;20045;-71
2023/09/17 03:28:40;;;;;;;45.90;41.00;;;15.60;99.90;;;;;;4979055;28;20074;-71
2023/09/17 03:31:06;;;;;;;41.78;37.33;;;15.60;99.90;;;;;;4995187;28;20125;-71
2023/09/17 03:33:32;;;;;;;44.08;39.47;;;15.60;99.90;;;;;;4994638;28;20046;-66
2023/09/17 03:35:59;;;;;;;48.33;43.28;;;15.60;99.90;;;;;;4978631;28;20479;-65
2023/09/17 03:38:25;;;;;;;47.97;42.97;;;15.60;99.90;;;;;;4978237;28;20553;-65
2023/09/17 03:40:50;;;;;;;48.90;43.60;;;15.60;99.90;;;;;;4994537;28;20046;-66
2023/09/17 03:43:16;;;;;;;52.38;45.95;;;15.60;99.90;;;;;;4994394;28;20502;-66
2023/09/17 03:45:42;;;;;;;49.95;44.50;;;15.60;99.90;;;;;;4978505;28;20115;-66
2023/09/17 03:48:08;;;;;;;60.97;53.05;;;15.70;99.90;;;;;;4995483;28;20049;-64
2023/09/17 03:50:39;;;;;;;50.03;44.63;;;15.60;99.90;;;;;;4995285;28;20137;-65
2023/09/17 03:53:06;;;;;;;60.25;53.15;;;15.60;99.90;;;;;;4978558;28;20415;-66
2023/09/17 03:55:33;;;;;;;52.58;46.88;;;15.60;99.90;;;;;;4978280;28;20553;-66
2023/09/17 03:58:00;;;;;;;65.05;55.05;;;15.50;99.90;;;;;;4994317;28;20061;-66
2023/09/17 04:00:26;;;;;;;50.25;44.92;;;15.50;99.90;;;;;;4994053;28;20046;-66
2023/09/17 04:02:52;;;;;;;62.92;53.55;;;15.50;99.90;;;;;;4977907;28;20038;-66
2023/09/17 04:05:21;;;;;;;55.00;49.17;;;15.50;99.90;;;;;;4978145;28;20097;-66
2023/09/17 04:07:48;;;;;;;61.72;54.88;;;15.50;99.90;;;;;;4978017;28;20130;-66
2023/09/17 04:10:15;;;;;;;52.78;47.17;;;15.50;99.90;;;;;;4994193;28;20096;-66
2023/09/17 04:12:42;;;;;;;58.78;52.33;;;15.50;99.90;;;;;;4977895;28;20121;-64
2023/09/17 04:15:13;;;;;;;52.83;46.50;;;15.60;99.90;;;;;;4994988;28;20043;-65
2023/09/17 04:17:42;;;;;;;59.25;51.28;;;15.60;99.90;;;;;;4977769;28;20046;-65
2023/09/17 04:20:13;;;;;;;52.65;46.92;;;15.60;99.90;;;;;;4994078;28;20446;-66
2023/09/17 04:22:41;;;;;;;61.90;54.72;;;15.50;99.90;;;;;;4962454;28;20042;-66
2023/09/17 04:25:09;;;;;;;47.33;42.33;;;15.60;99.90;;;;;;4961046;28;20437;-65
2023/09/17 04:27:36;;;;;;;68.85;59.30;;;15.60;99.90;;;;;;4994055;28;20050;-65
2023/09/17 04:30:06;;;;;;;61.92;54.75;;;15.60;99.90;;;;;;4977703;28;20046;-66
2023/09/17 04:32:39;;;;;;;53.65;47.85;;;15.60;99.90;;;;;;4993428;28;20046;-66
2023/09/17 04:35:07;;;;;;;71.93;59.92;;;15.60;99.90;;;;;;4977241;28;20046;-66
2023/09/17 04:37:37;;;;;;;71.82;60.45;;;15.60;99.90;;;;;;4995067;28;20096;-66
2023/09/17 04:40:13;;;;;;;76.68;62.42;;;15.60;99.90;;;;;;4977534;28;20042;-66
2023/09/17 04:42:43;;;;;;;66.70;57.67;;;15.60;99.90;;;;;;4993938;28;20046;-72
2023/09/17 04:45:10;;;;;;;66.50;58.15;;;15.60;99.90;;;;;;4993427;28;20038;-72
2023/09/17 04:47:37;;;;;;;74.75;63.22;;;15.60;99.90;;;;;;4993573;28;20049;-72
2023/09/17 04:50:08;;;;;;;67.25;57.25;;;15.60;99.90;;;;;;4993139;28;20073;-71
2023/09/17 04:52:35;;;;;;;67.95;59.20;;;15.60;99.90;;;;;;4977450;28;20679;-72
2023/09/17 04:55:05;;;;;;;83.15;65.57;;;15.60;99.90;;;;;;4977726;28;20034;-72
2023/09/17 04:57:31;;;;;;;79.00;66.00;;;15.50;99.90;;;;;;4992967;28;20104;-71
2023/09/17 04:59:57;;;;;;;70.82;61.65;;;15.50;99.90;;;;;;4977096;28;20039;-71
2023/09/17 05:02:22;;;;;;;81.43;66.80;;;15.50;99.90;;;;;;4961014;28;20509;-72
2023/09/17 05:04:48;;;;;;;73.78;62.55;;;15.50;99.90;;;;;;4993094;28;20092;-72
2023/09/17 05:07:14;;;;;;;92.38;75.70;;;15.50;99.90;;;;;;4993137;28;20089;-72
2023/09/17 05:09:40;;;;;;;83.93;69.25;;;15.50;99.90;;;;;;4992803;28;20089;-70
2023/09/17 05:12:08;;;;;;;86.78;69.70;;;15.50;99.90;;;;;;4976686;28;20042;-71
2023/09/17 05:14:36;;;;;;;77.50;65.75;;;15.40;99.90;;;;;;4993098;28;20057;-72
2023/09/17 05:17:02;;;;;;;76.07;63.45;;;15.40;99.90;;;;;;4993012;28;20050;-71
2023/09/17 05:19:28;;;;;;;95.90;76.03;;;15.50;99.90;;;;;;4993189;28;20157;-71
2023/09/17 05:21:54;;;;;;;98.43;79.35;;;15.40;99.90;;;;;;4976543;28;20121;-71
2023/09/17 05:24:20;;;;;;;95.15;75.65;;;15.40;99.90;;;;;;4992545;28;20039;-70
2023/09/17 05:26:45;;;;;;;109.00;84.75;;;15.40;99.90;;;;;;4976576;28;20357;-70
2023/09/17 05:29:15;;;;;;;84.68;71.38;;;15.40;99.90;;;;;;4992493;28;20046;-70
2023/09/17 05:31:41;;;;;;;100.82;80.28;;;15.40;99.90;;;;;;4977421;28;20526;-71
2023/09/17 05:34:07;;;;;;;101.50;78.72;;;15.50;99.90;;;;;;4992434;28;20046;-70
2023/09/17 05:36:33;;;;;;;79.70;65.80;;;15.50;99.90;;;;;;4960462;28;20042;-72
2023/09/17 05:39:00;;;;;;;86.72;72.63;;;15.50;99.90;;;;;;4992648;28;20129;-70
2023/09/17 05:41:26;;;;;;;64.97;57.80;;;15.60;99.90;;;;;;4992487;28;20046;-70
2023/09/17 05:43:51;;;;;;;69.72;60.67;;;15.60;99.90;;;;;;4992706;28;20376;-71
2023/09/17 05:46:17;;;;;;;72.90;64.72;;;15.60;99.90;;;;;;4992346;28;20038;-70
2023/09/17 05:48:43;;;;;;;75.22;66.45;;;15.70;99.90;;;;;;4992394;28;20050;-71
2023/09/17 05:51:12;;;;;;;76.80;65.80;;;15.70;99.90;;;;;;4992156;28;20062;-71
2023/09/17 05:53:38;;;;;;;72.65;64.25;;;15.80;99.90;;;;;;4992862;28;20049;-72
2023/09/17 05:56:07;;;;;;;69.97;60.85;;;15.80;99.90;;;;;;4992720;28;20042;-71
2023/09/17 05:58:36;;;;;;;67.88;60.40;;;15.80;99.90;;;;;;4976873;28;20557;-69
2023/09/17 06:01:04;;;;;;;75.43;66.90;;;15.90;99.90;;;;;;4993725;28;20070;-70
2023/09/17 06:03:30;;;;;;;98.97;78.10;;;16.00;99.90;;;;;;4976261;28;20042;-70
2023/09/17 06:05:56;;;;;;;77.13;67.10;;;16.00;99.90;;;;;;4992570;28;20038;-71
2023/09/17 06:08:22;;;;;;;71.32;62.20;;;16.00;99.90;;;;;;4976458;28;20514;-71
2023/09/17 06:10:49;;;;;;;76.05;65.13;;;16.00;99.90;;;;;;4992609;28;20141;-71
2023/09/17 06:13:18;;;;;;;83.90;68.50;;;16.10;99.90;;;;;;4960153;28;20047;-71
2023/09/17 06:15:45;;;;;;;72.57;64.68;;;16.20;99.90;;;;;;4992438;28;20399;-71
2023/09/17 06:18:11;;;;;;;73.30;63.30;;;16.10;99.90;;;;;;4992109;28;20058;-71
2023/09/17 06:20:37;;;;;;;77.97;68.65;;;16.20;99.90;;;;;;4976037;28;20044;-70
2023/09/17 06:23:03;;;;;;;69.22;61.58;;;16.10;99.90;;;;;;4992096;28;20050;-71
2023/09/17 06:25:29;;;;;;;79.43;66.50;;;16.10;99.90;;;;;;4976396;28;20042;-71
2023/09/17 06:27:55;;;;;;;81.68;68.50;;;16.20;99.90;;;;;;4976259;28;20482;-71
2023/09/17 06:30:21;;;;;;;79.35;65.68;;;16.20;99.90;;;;;;4992125;28;20126;-71
2023/09/17 06:32:47;;;;;;;60.17;53.67;;;16.10;99.90;;;;;;4993368;28;20514;-71
2023/09/17 06:35:13;;;;;;;74.72;66.25;;;16.20;99.90;;;;;;4976342;28;20057;-71
2023/09/17 06:37:39;;;;;;;75.75;66.57;;;16.20;99.90;;;;;;4992293;28;20403;-71
2023/09/17 06:40:05;;;;;;;68.88;61.22;;;16.20;99.90;;;;;;4960073;28;20038;-70
2023/09/17 06:42:31;;;;;;;66.18;59.03;;;16.20;99.90;;;;;;4976413;28;20066;-70
2023/09/17 06:44:57;;;;;;;60.95;53.90;;;16.20;99.90;;;;;;4991925;28;20034;-72
2023/09/17 06:47:23;;;;;;;57.33;51.53;;;16.20;99.90;;;;;;4993446;28;20057;-70
2023/09/17 06:49:48;;;;;;;61.63;54.92;;;16.20;99.90;;;;;;4979637;28;20177;-71
2023/09/17 06:52:14;;;;;;;77.28;63.83;;;16.30;99.90;;;;;;4995489;28;20054;-71
2023/09/17 06:54:58;;;;;;;62.75;56.08;;;16.30;99.90;;;;;;4979190;28;20439;-71
2023/09/17 06:57:27;;;;;;;72.05;60.67;;;16.30;99.90;;;;;;4966196;28;20042;-70
2023/09/17 06:59:53;;;;;;;58.25;52.17;;;16.30;99.90;;;;;;4963091;28;20049;-70
2023/09/17 07:02:19;;;;;;;58.00;52.03;;;16.40;99.90;;;;;;4995562;28;20045;-65
2023/09/17 07:04:45;;;;;;;56.95;51.13;;;16.40;99.90;;;;;;4995084;28;20038;-64
2023/09/17 07:07:14;;;;;;;55.03;49.38;;;16.40;99.90;;;;;;4995027;28;20149;-66
2023/09/17 07:09:40;;;;;;;69.22;61.72;;;16.40;99.90;;;;;;4963254;28;20046;-66
2023/09/17 07:12:06;;;;;;;62.42;55.72;;;16.40;99.90;;;;;;4994982;28;20046;-66
2023/09/17 07:14:32;;;;;;;59.92;53.55;;;16.40;99.90;;;;;;4995352;28;20038;-65
2023/09/17 07:16:58;;;;;;;63.75;56.88;;;16.50;99.90;;;;;;4978859;28;20056;-66
2023/09/17 07:19:23;;;;;;;63.05;56.28;;;16.50;99.90;;;;;;4949356;28;20113;-66
2023/09/17 07:21:49;;;;;;;68.18;60.70;;;16.60;99.90;;;;;;5001078;28;20038;-65
2023/09/17 07:24:15;;;;;;;65.90;58.70;;;16.70;99.90;;;;;;4978768;28;20172;-65
2023/09/17 07:26:44;;;;;;;57.95;52.08;;;16.80;99.90;;;;;;4978733;28;20042;-65
2023/09/17 07:29:10;;;;;;;59.28;53.15;;;16.90;99.90;;;;;;4978468;28;20042;-66
2023/09/17 07:31:36;;;;;;;60.47;54.15;;;16.90;99.90;;;;;;4978692;28;20084;-63
2023/09/17 07:34:03;;;;;;;57.13;50.97;;;17.00;99.90;;;;;;4994670;28;20144;-64
2023/09/17 07:36:41;;;;;;;57.83;51.97;;;17.10;99.90;;;;;;4978679;28;20053;-65
2023/09/17 07:39:09;;;;;;;51.90;46.42;;;17.10;99.90;;;;;;4978272;28;20388;-65
2023/09/17 07:41:34;;;;;;;53.72;47.95;;;17.20;99.90;;;;;;4962490;28;20045;-65
2023/09/17 07:44:00;;;;;;;55.88;50.20;;;17.20;99.90;;;;;;4994391;28;20034;-65
2023/09/17 07:46:26;;;;;;;53.33;47.88;;;17.30;99.90;;;;;;4978238;28;20042;-65
2023/09/17 07:48:52;;;;;;;54.50;48.90;;;17.30;99.90;;;;;;4962480;28;20499;-65
2023/09/17 07:51:18;;;;;;;53.38;48.08;;;17.40;99.90;;;;;;4993993;28;20113;-66
2023/09/17 07:53:44;;;;;;;58.50;52.33;;;17.40;99.90;;;;;;4994421;28;20104;-65
2023/09/17 07:56:10;;;;;;;54.50;49.00;;;17.50;99.90;;;;;;4994170;28;20050;-65
2023/09/17 07:58:36;;;;;;;59.38;53.38;;;17.50;99.90;;;;;;4978117;28;20043;-65
2023/09/17 08:01:05;;;;;;;56.80;50.95;;;17.50;99.90;;;;;;4962023;28;20101;-65
2023/09/17 08:03:31;;;;;;;58.03;52.22;;;17.50;99.90;;;;;;4994251;28;20051;-64
2023/09/17 08:05:57;;;;;;;57.67;51.65;;;17.60;99.90;;;;;;4977936;28;20048;-66
2023/09/17 08:08:23;;;;;;;59.70;53.63;;;17.60;99.90;;;;;;4993918;28;20225;-66
2023/09/17 08:10:52;;;;;;;57.67;51.92;;;17.70;99.90;;;;;;4993917;28;20042;-65
2023/09/17 08:13:17;;;;;;;54.35;48.67;;;17.70;99.90;;;;;;4993944;28;20108;-66
2023/09/17 08:15:44;;;;;;;58.05;52.20;;;17.70;99.90;;;;;;4977886;28;20042;-64
2023/09/17 08:18:10;;;;;;;55.10;49.60;;;17.80;99.90;;;;;;4993868;28;20046;-64
2023/09/17 08:20:36;;;;;;;57.47;51.47;;;17.80;99.90;;;;;;4993996;28;20042;-65
2023/09/17 08:23:05;;;;;;;51.15;45.83;;;17.80;99.90;;;;;;4977784;28;20042;-65
2023/09/17 08:25:34;;;;;;;52.33;46.85;;;17.90;99.90;;;;;;4962278;28;20407;-65
2023/09/17 08:28:00;;;;;;;54.50;48.90;;;17.90;99.90;;;;;;4995388;28;20038;-65
2023/09/17 08:30:26;;;;;;;53.28;47.80;;;18.00;99.90;;;;;;4977567;28;20572;-65
2023/09/17 08:32:52;;;;;;;49.20;44.30;;;18.00;99.90;;;;;;4994759;28;20411;-64
2023/09/17 08:35:18;;;;;;;47.78;42.78;;;18.10;99.90;;;;;;4994685;28;20101;-65
2023/09/17 08:37:45;;;;;;;46.42;41.88;;;18.10;99.90;;;;;;4993492;28;20049;-65
2023/09/17 08:40:17;;;;;;;48.55;43.72;;;18.20;99.90;;;;;;4993640;28;20050;-66
2023/09/17 08:42:45;;;;;;;48.55;43.78;;;18.20;99.90;;;;;;4993284;28;20050;-65
2023/09/17 08:45:12;;;;;;;46.20;41.47;;;18.20;99.90;;;;;;4993629;28;20043;-66
2023/09/17 08:47:38;;;;;;;47.38;42.47;;;18.20;99.90;;;;;;4993594;28;20451;-66
2023/09/17 08:50:09;;;;;;;46.28;41.40;;;18.30;99.90;;;;;;4966100;28;20062;-66
2023/09/17 08:52:40;;;;;;;46.47;41.63;;;18.30;99.90;;;;;;4996001;28;20042;-65
2023/09/17 08:55:08;;;;;;;43.78;39.35;;;18.40;99.90;;;;;;4977922;28;20064;-66
2023/09/17 08:57:37;;;;;;;44.03;39.55;;;18.40;99.90;;;;;;4993255;28;20383;-64
2023/09/17 09:00:08;;;;;;;43.30;38.80;;;18.50;99.90;;;;;;4977174;28;20049;-65
2023/09/17 09:02:44;;;;;;;44.53;40.00;;;18.50;99.90;;;;;;4993032;28;20042;-65
2023/09/17 09:05:14;;;;;;;44.90;40.30;;;18.50;99.90;;;;;;4993068;28;20104;-65
2023/09/17 09:07:46;;;;;;;42.63;38.33;;;18.50;99.90;;;;;;4994210;28;20046;-66
2023/09/17 09:10:14;;;;;;;46.50;41.70;;;18.60;99.90;;;;;;4992711;28;20042;-65
2023/09/17 09:12:42;;;;;;;40.60;36.38;;;18.60;99.90;;;;;;4944966;28;20561;-65
2023/09/17 09:15:12;;;;;;;41.80;37.70;;;18.60;99.90;;;;;;4993393;28;20050;-64
2023/09/17 09:17:39;;;;;;;39.45;35.25;;;18.60;99.90;;;;;;4976566;28;20050;-65
2023/09/17 09:20:09;;;;;;;42.78;38.42;;;18.60;99.90;;;;;;4992923;28;20483;-66
2023/09/17 09:22:36;;;;;;;40.58;35.95;;;18.70;99.90;;;;;;4992790;28;20042;-66
2023/09/17 09:25:04;;;;;;;40.60;36.42;;;18.70;99.90;;;;;;4976612;28;20042;-66
2023/09/17 09:27:30;;;;;;;39.10;35.10;;;18.80;99.90;;;;;;4992749;28;20053;-64
2023/09/17 09:30:09;;;;;;;43.30;39.00;;;18.70;99.90;;;;;;4992967;28;20042;-66
2023/09/17 09:32:36;;;;;;;41.13;36.95;;;18.70;99.90;;;;;;4992715;28;20145;-64
2023/09/17 09:35:03;;;;;;;39.80;35.80;;;18.70;99.90;;;;;;4976843;28;20242;-66
2023/09/17 09:37:29;;;;;;;40.33;36.17;;;18.70;99.90;;;;;;4992426;28;20112;-65
2023/09/17 09:39:56;;;;;;;39.08;35.25;;;18.60;99.90;;;;;;4992532;28;20093;-65
2023/09/17 09:42:28;;;;;;;41.70;37.65;;;18.60;99.90;;;;;;4992520;28;20034;-65
2023/09/17 09:44:54;;;;;;;45.85;41.13;;;18.70;99.90;;;;;;4960877;28;20386;-65
2023/09/17 09:47:25;;;;;;;41.50;37.30;;;18.60;99.90;;;;;;4992735;28;20042;-64
2023/09/17 09:49:53;;;;;;;39.80;35.95;;;18.60;99.90;;;;;;4992261;28;20051;-65
2023/09/17 09:52:23;;;;;;;41.38;37.25;;;18.60;99.90;;;;;;4976994;28;20046;-64
2023/09/17 09:54:51;;;;;;;40.28;36.13;;;18.70;99.90;;;;;;4992802;28;20384;-66
2023/09/17 09:57:19;;;;;;;41.08;37.10;;;18.80;99.90;;;;;;4993490;28;20042;-64
2023/09/17 09:59:48;;;;;;;39.33;35.28;;;18.90;99.90;;;;;;4993927;28;20101;-65
2023/09/17 10:02:16;;;;;;;41.53;37.35;;;18.90;99.90;;;;;;4993562;28;20053;-64
2023/09/17 10:04:45;;;;;;;37.40;33.65;;;19.00;99.90;;;;;;4992303;28;20046;-64
2023/09/17 10:07:17;;;;;;;40.05;36.00;;;19.00;99.90;;;;;;4993421;28;20038;-65
2023/09/17 10:09:43;;;;;;;37.25;33.45;;;19.10;99.90;;;;;;4992709;28;20129;-65
2023/09/17 10:12:10;;;;;;;38.33;34.45;;;19.00;99.90;;;;;;4976113;28;20085;-65
2023/09/17 10:14:40;;;;;;;35.85;32.25;;;19.00;99.90;;;;;;4957362;28;20053;-65
2023/09/17 10:17:07;;;;;;;36.00;32.40;;;19.10;99.90;;;;;;4992048;28;20050;-65
2023/09/17 10:19:37;;;;;;;37.53;33.75;;;19.20;99.90;;;;;;4993769;28;20043;-65
2023/09/17 10:22:07;;;;;;;33.50;30.00;;;19.20;99.90;;;;;;4993530;28;20487;-65
2023/09/17 10:24:39;;;;;;;32.80;29.60;;;19.40;99.90;;;;;;4981017;28;20038;-65
2023/09/17 10:27:08;;;;;;;33.25;29.85;;;19.40;99.90;;;;;;4979759;28;20479;-66
2023/09/17 10:29:43;;;;;;;32.08;28.70;;;19.60;99.90;;;;;;4979609;28;20049;-65
2023/09/17 10:32:09;;;;;;;34.97;31.17;;;19.90;99.90;;;;;;4980295;28;20034;-72
2023/09/17 10:34:35;;;;;;;30.73;27.63;;;20.00;99.90;;;;;;4995940;28;20097;-71
2023/09/17 10:37:03;;;;;;;31.15;28.05;;;20.10;99.90;;;;;;4995832;28;20097;-72
2023/09/17 10:39:30;;;;;;;30.83;27.83;;;20.20;99.90;;;;;;4996882;28;20042;-70
2023/09/17 10:42:00;;;;;;;33.20;29.75;;;20.20;99.90;;;;;;4995945;28;20039;-70
2023/09/17 10:44:28;;;;;;;32.10;28.90;;;20.20;99.90;;;;;;4995709;28;20125;-73
2023/09/17 10:46:59;;;;;;;34.72;31.23;;;20.20;99.90;;;;;;4995625;28;20052;-72
2023/09/17 10:49:26;;;;;;;33.75;30.25;;;20.10;99.90;;;;;;4995493;28;20046;-72
2023/09/17 10:51:56;;;;;;;31.73;28.35;;;20.10;99.90;;;;;;4995402;28;20161;-71
2023/09/17 10:54:22;;;;;;;35.13;31.52;;;20.10;99.90;;;;;;4979361;28;20127;-71
2023/09/17 10:56:48;;;;;;;34.47;30.92;;;20.00;99.90;;;;;;4995590;28;20042;-72
2023/09/17 10:59:17;;;;;;;35.65;31.95;;;20.00;99.90;;;;;;4995274;28;20069;-72
2023/09/17 11:01:45;;;;;;;33.97;30.50;;;19.80;99.90;;;;;;4995228;28;20104;-72
2023/09/17 11:04:18;;;;;;;34.10;30.65;;;19.80;99.90;;;;;;4995506;28;20038;-72
2023/09/17 11:06:47;;;;;;;36.05;32.35;;;19.80;99.90;;;;;;4995416;28;20511;-73
2023/09/17 11:09:14;;;;;;;35.38;31.75;;;19.80;99.90;;;;;;4995089;28;20077;-72
2023/09/17 11:11:40;;;;;;;35.97;31.40;;;19.80;99.90;;;;;;4995021;28;20050;-71
2023/09/17 11:14:14;;;;;;;35.35;31.55;;;19.90;99.90;;;;;;4979033;28;20046;-73
2023/09/17 11:16:39;;;;;;;33.70;30.35;;;20.00;99.90;;;;;;4964018;28;20602;-72
2023/09/17 11:19:08;;;;;;;35.00;31.45;;;20.20;99.90;;;;;;4978869;28;20133;-70
2023/09/17 11:21:35;;;;;;;34.75;31.15;;;20.60;99.90;;;;;;4994916;28;20050;-72
2023/09/17 11:24:06;;;;;;;34.03;30.33;;;20.90;99.90;;;;;;4979096;28;20046;-72
2023/09/17 11:26:35;;;;;;;33.20;29.88;;;21.10;99.90;;;;;;4978696;28;20081;-72
2023/09/17 11:29:07;;;;;;;32.58;29.23;;;21.00;99.90;;;;;;4978744;28;20180;-71
2023/09/17 11:32:01;;;;;;;30.55;27.40;;;21.00;99.90;;;;;;4978816;28;20573;-71
2023/09/17 11:34:27;;;;;;;31.48;28.27;;;21.20;99.90;;;;;;4978113;28;20050;-71
2023/09/17 11:36:53;;;;;;;31.05;27.95;;;21.40;99.90;;;;;;4941426;28;20049;-71
2023/09/17 11:39:22;;;;;;;31.27;27.98;;;21.50;99.90;;;;;;4972355;28;20050;-72
2023/09/17 11:41:52;;;;;;;30.85;27.65;;;21.60;99.90;;;;;;4962927;28;20125;-71
2023/09/17 11:44:20;;;;;;;29.75;26.65;;;21.60;99.90;;;;;;4994585;28;20109;-72
2023/09/17 11:46:46;;;;;;;30.95;27.75;;;21.70;99.90;;;;;;4994563;28;20104;-71
2023/09/17 11:49:13;;;;;;;29.77;26.77;;;21.80;99.90;;;;;;4994545;28;20035;-71
2023/09/17 11:51:47;;;;;;;27.52;24.65;;;22.00;99.90;;;;;;4978091;28;20503;-71
2023/09/17 11:54:18;;;;;;;30.98;27.88;;;22.10;99.90;;;;;;4978438;28;20078;-72
2023/09/17 11:56:55;;;;;;;29.98;26.80;;;22.20;99.90;;;;;;4979140;28;20054;-71
2023/09/17 11:59:28;;;;;;;29.80;26.65;;;22.10;99.90;;;;;;4978623;28;20467;-71
2023/09/17 12:01:57;;;;;;;30.67;27.55;;;22.20;99.90;;;;;;4994367;28;20046;-71
2023/09/17 12:04:31;;;;;;;27.73;24.83;;;22.10;99.90;;;;;;4994479;28;20410;-72
2023/09/17 12:06:58;;;;;;;32.20;28.90;;;22.10;99.90;;;;;;4977868;28;20042;-71
2023/09/17 12:11:57;;;;;;;29.13;26.23;;;22.20;99.90;;;;;;4994263;28;20042;-72
2023/09/17 12:14:23;;;;;;;28.65;25.75;;;22.10;99.90;;;;;;4994004;28;20054;-71
2023/09/17 12:16:49;;;;;;;29.35;26.38;;;22.20;99.90;;;;;;4977920;28;20399;-70
2023/09/17 12:19:17;;;;;;;28.40;25.65;;;22.30;99.90;;;;;;4993690;28;20034;-73
2023/09/17 12:21:47;;;;;;;28.50;25.60;;;22.30;99.90;;;;;;4993800;28;20100;-72
2023/09/17 12:24:35;;;;;;;28.48;25.63;;;22.40;99.90;;;;;;4993764;28;20053;-73
2023/09/17 12:27:22;;;;;;;27.85;24.95;;;22.50;99.90;;;;;;4977814;28;20487;-73
2023/09/17 12:29:48;;;;;;;29.15;26.15;;;22.50;99.90;;;;;;4977499;28;20038;-71
2023/09/17 12:32:17;;;;;;;28.13;25.20;;;22.50;99.90;;;;;;4977207;28;20042;-71